createdAt,value
2019-05-13T00:01:44.398Z,43.10
2019-05-13T00:04:14.263Z,43.10
2019-05-13T00:06:54.003Z,43.10
2019-05-13T00:09:15.608Z,43.10
2019-05-13T00:11:45.422Z,43.20
2019-05-13T00:14:15.387Z,43.20
2019-05-13T00:16:45.404Z,43.20
2019-05-13T00:19:15.197Z,43.20
2019-05-13T00:21:44.995Z,43.20
2019-05-13T00:24:14.830Z,43.20
2019-05-13T00:26:44.690Z,43.20
2019-05-13T00:29:14.711Z,43.20
2019-05-13T00:31:44.494Z,43.20
2019-05-13T00:34:14.528Z,43.20
2019-05-13T00:36:44.701Z,43.30
2019-05-13T00:39:15.315Z,43.20
2019-05-13T00:41:45.368Z,43.10
2019-05-13T00:44:15.114Z,43.10
2019-05-13T00:46:45.231Z,43.10
2019-05-13T00:49:15.015Z,43.40
2019-05-13T00:51:44.779Z,43.10
2019-05-13T00:54:14.747Z,43.00
2019-05-13T00:56:44.688Z,43.00
2019-05-13T00:59:14.503Z,43.00
2019-05-13T01:01:44.346Z,43.00
2019-05-13T01:04:15.281Z,43.00
2019-05-13T01:06:45.120Z,43.00
2019-05-13T01:09:14.911Z,43.00
2019-05-13T01:11:44.796Z,43.00
2019-05-13T01:14:14.609Z,43.00
2019-05-13T01:16:44.710Z,43.10
2019-05-13T01:19:14.562Z,43.00
2019-05-13T01:21:44.432Z,43.10
2019-05-13T01:24:14.548Z,43.00
2019-05-13T01:26:44.527Z,43.00
2019-05-13T01:29:14.320Z,43.00
2019-05-13T01:31:44.239Z,43.00
2019-05-13T01:34:14.406Z,43.00
2019-05-13T01:36:44.786Z,43.00
2019-05-13T01:39:14.813Z,43.00
2019-05-13T01:41:44.571Z,43.00
2019-05-13T01:44:14.491Z,42.90
2019-05-13T01:46:44.278Z,43.00
2019-05-13T01:49:14.115Z,43.00
2019-05-13T01:51:44.176Z,43.00
2019-05-13T01:54:14.396Z,42.90
2019-05-13T01:56:44.300Z,43.00
2019-05-13T01:59:15.240Z,42.90
2019-05-13T02:01:45.279Z,42.90
2019-05-13T02:04:15.055Z,43.00
2019-05-13T02:06:45.001Z,43.00
2019-05-13T02:09:14.800Z,43.00
2019-05-13T02:11:46.730Z,43.00
2019-05-13T02:14:16.178Z,43.00
2019-05-13T02:16:45.989Z,43.00
2019-05-13T02:19:15.877Z,42.90
2019-05-13T02:21:45.685Z,43.00
2019-05-13T02:24:15.556Z,43.00
2019-05-13T02:26:45.310Z,43.00
2019-05-13T02:29:15.131Z,43.00
2019-05-13T02:31:51.021Z,42.90
2019-05-13T02:34:16.376Z,43.00
2019-05-13T02:36:46.210Z,43.00
2019-05-13T02:39:16.024Z,43.00
2019-05-13T02:41:45.839Z,43.00
2019-05-13T02:44:15.612Z,43.00
2019-05-13T02:46:45.589Z,43.00
2019-05-13T02:49:15.393Z,43.00
2019-05-13T02:51:45.141Z,43.10
2019-05-13T02:54:15.069Z,43.10
2019-05-13T02:56:44.875Z,43.10
2019-05-13T02:59:14.675Z,43.10
2019-05-13T03:01:44.557Z,43.00
2019-05-13T03:04:14.341Z,43.10
2019-05-13T03:06:44.157Z,43.10
2019-05-13T03:09:13.979Z,43.10
2019-05-13T03:11:43.897Z,43.10
2019-05-13T03:14:13.643Z,43.00
2019-05-13T03:16:52.886Z,43.00
2019-05-13T03:19:22.913Z,43.00
2019-05-13T03:21:52.894Z,43.00
2019-05-13T03:24:23.212Z,43.10
2019-05-13T03:26:53.556Z,43.10
2019-05-13T03:29:23.649Z,43.10
2019-05-13T03:31:55.867Z,43.10
2019-05-13T03:34:27.153Z,43.20
2019-05-13T03:36:58.044Z,43.10
2019-05-13T03:39:28.675Z,43.20
2019-05-13T03:42:02.929Z,43.10
2019-05-13T03:44:33.383Z,43.10
2019-05-13T03:47:06.041Z,43.10
2019-05-13T03:49:37.119Z,43.10
2019-05-13T03:52:06.913Z,43.00
2019-05-13T03:54:36.827Z,43.10
2019-05-13T03:57:06.800Z,43.10
2019-05-13T03:59:36.643Z,43.10
2019-05-13T04:02:06.438Z,43.10
2019-05-13T04:04:36.316Z,43.10
2019-05-13T04:07:06.237Z,43.10
2019-05-13T04:09:36.878Z,43.10
2019-05-13T04:12:06.995Z,43.00
2019-05-13T04:14:36.924Z,43.10
2019-05-13T04:17:06.906Z,43.10
2019-05-13T04:19:36.691Z,43.10
2019-05-13T04:22:06.725Z,43.10
2019-05-13T04:24:37.280Z,43.00
2019-05-13T04:27:07.222Z,43.10
2019-05-13T04:29:37.375Z,43.10
2019-05-13T04:32:07.286Z,43.10
2019-05-13T04:34:37.192Z,43.10
2019-05-13T04:37:07.126Z,43.00
2019-05-13T04:39:47.559Z,43.00
2019-05-13T04:42:08.700Z,43.00
2019-05-13T04:44:38.539Z,43.00
2019-05-13T04:47:08.340Z,43.00
2019-05-13T04:49:42.608Z,43.10
2019-05-13T04:52:13.363Z,43.00
2019-05-13T04:54:43.672Z,43.10
2019-05-13T04:57:13.584Z,43.10
2019-05-13T04:59:44.515Z,43.00
2019-05-13T05:02:43.263Z,43.00
2019-05-13T05:05:47.183Z,43.00
2019-05-13T05:08:42.600Z,43.00
2019-05-13T05:11:44.990Z,43.20
2019-05-13T05:14:32.472Z,43.30
2019-05-13T05:17:27.245Z,43.40
2019-05-13T05:20:12.537Z,43.00
2019-05-13T05:23:21.442Z,43.30
2019-05-13T05:26:42.036Z,43.30
2019-05-13T05:29:53.062Z,43.40
2019-05-13T05:32:51.870Z,43.40
2019-05-13T05:36:24.130Z,43.40
2019-05-13T05:39:12.345Z,43.40
2019-05-13T05:41:43.814Z,43.60
2019-05-13T05:44:14.340Z,43.50
2019-05-13T05:46:45.102Z,43.40
2019-05-13T05:49:17.550Z,43.30
2019-05-13T05:51:51.468Z,43.20
2019-05-13T05:54:23.412Z,43.20
2019-05-13T05:56:55.295Z,43.10
2019-05-13T05:59:26.839Z,43.10
2019-05-13T06:01:57.471Z,43.00
2019-05-13T06:04:27.582Z,43.00
2019-05-13T06:06:57.864Z,42.90
2019-05-13T06:09:27.642Z,42.90
2019-05-13T06:11:57.599Z,43.50
2019-05-13T06:14:27.496Z,42.80
2019-05-13T06:16:57.290Z,42.70
2019-05-13T06:19:27.456Z,43.40
2019-05-13T06:21:57.569Z,42.70
2019-05-13T06:24:27.466Z,42.70
2019-05-13T06:26:57.395Z,42.80
2019-05-13T06:29:27.335Z,42.70
2019-05-13T06:31:57.384Z,42.70
2019-05-13T06:34:27.280Z,42.70
2019-05-13T06:36:57.054Z,42.70
2019-05-13T06:39:27.085Z,42.70
2019-05-13T06:41:56.870Z,42.70
2019-05-13T06:44:26.744Z,42.70
2019-05-13T06:46:56.507Z,42.70
2019-05-13T06:49:26.468Z,42.70
2019-05-13T06:51:56.300Z,42.80
2019-05-13T06:54:26.078Z,42.80
2019-05-13T06:56:55.944Z,42.90
2019-05-13T06:59:25.803Z,42.80
2019-05-13T07:01:55.663Z,42.90
2019-05-13T07:04:25.410Z,42.90
2019-05-13T07:07:08.888Z,42.90
2019-05-13T07:09:26.753Z,42.90
2019-05-13T07:11:57.116Z,42.90
2019-05-13T07:14:26.970Z,42.90
2019-05-13T07:16:56.865Z,42.80
2019-05-13T07:19:26.719Z,42.80
2019-05-13T07:21:56.521Z,42.80
2019-05-13T07:24:26.386Z,42.80
2019-05-13T07:26:56.330Z,42.80
2019-05-13T07:29:26.143Z,42.70
2019-05-13T07:31:55.931Z,42.80
2019-05-13T07:34:25.808Z,42.70
2019-05-13T07:36:55.606Z,42.70
2019-05-13T07:39:25.404Z,42.70
2019-05-13T07:41:55.291Z,42.60
2019-05-13T07:44:25.160Z,42.60
2019-05-13T07:46:54.999Z,42.60
2019-05-13T07:49:24.864Z,42.60
2019-05-13T07:51:54.757Z,43.20
2019-05-13T07:54:24.675Z,42.50
2019-05-13T07:56:54.477Z,42.50
2019-05-13T07:59:24.250Z,42.60
2019-05-13T08:01:54.243Z,42.60
2019-05-13T08:04:26.735Z,42.50
2019-05-13T08:06:55.563Z,42.60
2019-05-13T08:09:25.407Z,42.60
2019-05-13T08:12:04.694Z,42.60
2019-05-13T08:14:26.770Z,42.60
2019-05-13T08:16:56.688Z,42.60
2019-05-13T08:19:26.493Z,42.70
2019-05-13T08:21:56.299Z,42.70
2019-05-13T08:24:26.176Z,42.60
2019-05-13T08:26:55.943Z,42.60
2019-05-13T08:29:25.832Z,42.60
2019-05-13T08:31:55.723Z,42.60
2019-05-13T08:34:25.591Z,42.60
2019-05-13T08:36:55.496Z,42.70
2019-05-13T08:39:26.819Z,42.60
2019-05-13T08:42:11.824Z,42.70
2019-05-13T08:44:28.268Z,42.60
2019-05-13T08:47:02.609Z,42.60
2019-05-13T08:49:32.596Z,42.70
2019-05-13T08:52:02.911Z,42.70
2019-05-13T08:54:33.176Z,42.70
2019-05-13T08:57:03.399Z,42.70
2019-05-13T08:59:33.306Z,42.70
2019-05-13T09:02:03.546Z,42.70
2019-05-13T09:04:33.600Z,42.70
2019-05-13T09:07:04.539Z,42.70
2019-05-13T09:09:34.435Z,42.60
2019-05-13T09:12:04.363Z,42.80
2019-05-13T09:14:34.235Z,42.70
2019-05-13T09:17:04.331Z,43.50
2019-05-13T09:19:34.196Z,42.70
2019-05-13T09:22:03.996Z,42.80
2019-05-13T09:24:37.522Z,42.80
2019-05-13T09:27:05.214Z,42.80
2019-05-13T09:29:35.081Z,42.90
2019-05-13T09:32:04.972Z,42.90
2019-05-13T09:34:34.860Z,42.90
2019-05-13T09:37:04.666Z,42.90
2019-05-13T09:39:34.547Z,42.90
2019-05-13T09:42:04.464Z,43.00
2019-05-13T09:44:34.285Z,42.80
2019-05-13T09:47:04.136Z,42.90
2019-05-13T09:49:33.990Z,42.90
2019-05-13T09:52:03.835Z,43.10
2019-05-13T09:54:33.681Z,42.90
2019-05-13T09:57:03.438Z,42.90
2019-05-13T09:59:33.427Z,42.90
2019-05-13T10:02:03.492Z,42.90
2019-05-13T10:04:33.600Z,42.90
2019-05-13T10:07:03.533Z,42.90
2019-05-13T10:09:33.326Z,42.90
2019-05-13T10:12:03.691Z,42.90
2019-05-13T10:14:33.876Z,43.00
2019-05-13T10:17:06.496Z,42.90
2019-05-13T10:19:35.232Z,43.00
2019-05-13T10:22:05.927Z,42.90
2019-05-13T10:24:36.097Z,43.00
2019-05-13T10:27:06.309Z,43.00
2019-05-13T10:29:36.811Z,43.00
2019-05-13T10:32:06.621Z,42.90
2019-05-13T10:34:37.100Z,42.90
2019-05-13T10:37:07.219Z,42.90
2019-05-13T10:39:37.098Z,43.00
2019-05-13T10:42:06.955Z,43.00
2019-05-13T10:44:36.758Z,43.00
2019-05-13T10:47:06.559Z,42.90
2019-05-13T10:49:36.561Z,43.00
2019-05-13T10:52:06.343Z,42.90
2019-05-13T10:54:36.146Z,43.00
2019-05-13T10:57:05.972Z,43.10
2019-05-13T10:59:35.763Z,43.00
2019-05-13T11:02:05.639Z,43.00
2019-05-13T11:04:35.528Z,43.00
2019-05-13T11:07:05.592Z,43.10
2019-05-13T11:09:35.607Z,43.00
2019-05-13T11:12:05.578Z,43.00
2019-05-13T11:14:35.536Z,43.10
2019-05-13T11:17:05.687Z,43.10
2019-05-13T11:19:37.093Z,43.10
2019-05-13T11:22:07.046Z,43.10
2019-05-13T11:24:36.838Z,43.20
2019-05-13T11:27:06.767Z,43.10
2019-05-13T11:29:36.667Z,43.10
2019-05-13T11:32:06.706Z,43.00
2019-05-13T11:34:36.567Z,43.10
2019-05-13T11:37:06.451Z,43.00
2019-05-13T11:39:36.358Z,43.10
2019-05-13T11:42:06.314Z,43.20
2019-05-13T11:44:36.291Z,43.10
2019-05-13T11:47:06.371Z,43.10
2019-05-13T11:49:36.286Z,43.10
2019-05-13T11:52:06.118Z,43.10
2019-05-13T11:54:35.878Z,43.10
2019-05-13T11:57:06.667Z,43.10
2019-05-13T11:59:36.654Z,43.10
2019-05-13T12:02:06.744Z,43.00
2019-05-13T12:04:36.591Z,43.10
2019-05-13T12:07:06.447Z,43.10
2019-05-13T12:09:37.401Z,43.30
2019-05-13T12:12:07.155Z,43.20
2019-05-13T12:14:56.502Z,43.20
2019-05-13T12:17:08.454Z,43.20
2019-05-13T12:19:38.256Z,43.20
2019-05-13T12:22:08.044Z,43.30
2019-05-13T12:24:37.947Z,43.20
2019-05-13T12:27:07.734Z,43.20
2019-05-13T12:29:37.831Z,43.30
2019-05-13T12:32:07.631Z,43.20
2019-05-13T12:34:40.774Z,43.20
2019-05-13T12:37:08.912Z,43.30
2019-05-13T12:39:38.694Z,43.20
2019-05-13T12:42:08.519Z,43.20
2019-05-13T12:44:59.827Z,43.30
2019-05-13T12:47:12.123Z,43.30
2019-05-13T12:49:43.920Z,43.30
2019-05-13T12:52:14.000Z,43.20
2019-05-13T12:54:44.098Z,43.20
2019-05-13T12:57:16.085Z,43.20
2019-05-13T12:59:46.424Z,43.20
2019-05-13T13:02:16.363Z,43.20
2019-05-13T13:05:07.995Z,43.20
2019-05-13T13:07:17.716Z,43.20
2019-05-13T13:09:47.512Z,43.20
2019-05-13T13:12:17.403Z,43.30
2019-05-13T13:14:47.322Z,43.20
2019-05-13T13:17:17.150Z,43.20
2019-05-13T13:19:46.957Z,43.20
2019-05-13T13:22:16.767Z,43.20
2019-05-13T13:27:26.012Z,43.20
2019-05-13T13:30:01.695Z,43.20
2019-05-13T13:32:24.622Z,43.10
2019-05-13T13:34:54.702Z,43.20
2019-05-13T13:37:24.642Z,43.30
2019-05-13T13:39:55.383Z,43.20
2019-05-13T13:42:25.283Z,43.20
2019-05-13T13:44:55.136Z,43.20
2019-05-13T13:47:24.927Z,43.30
2019-05-13T13:49:54.911Z,43.30
2019-05-13T13:52:24.773Z,43.20
2019-05-13T13:55:02.960Z,43.30
2019-05-13T13:57:26.229Z,43.20
2019-05-13T14:00:20.798Z,43.20
2019-05-13T14:02:27.562Z,43.20
2019-05-13T14:04:57.619Z,43.20
2019-05-13T14:06:55.935Z,43.20
2019-05-13T14:07:34.975Z,43.30
2019-05-13T14:10:03.261Z,43.30
2019-05-13T14:12:32.497Z,43.30
2019-05-13T14:15:02.255Z,43.30
2019-05-13T14:17:32.240Z,43.30
2019-05-13T14:20:02.079Z,43.30
2019-05-13T14:22:32.446Z,43.30
2019-05-13T14:25:02.249Z,43.30
2019-05-13T14:27:32.192Z,43.20
2019-05-13T14:30:02.069Z,43.30
2019-05-13T14:32:32.152Z,43.30
2019-05-13T14:35:02.619Z,43.20
2019-05-13T14:37:32.523Z,43.30
2019-05-13T14:40:02.604Z,43.30
2019-05-13T14:42:32.611Z,43.30
2019-05-13T14:45:02.405Z,43.30
2019-05-13T14:47:32.269Z,43.30
2019-05-13T14:50:02.541Z,43.30
2019-05-13T14:52:32.421Z,43.40
2019-05-13T14:55:02.417Z,43.30
2019-05-13T14:57:32.385Z,43.40
2019-05-13T15:00:02.574Z,43.50
2019-05-13T15:02:35.782Z,43.40
2019-05-13T15:05:05.474Z,43.40
2019-05-13T15:07:35.294Z,43.40
2019-05-13T15:10:05.874Z,43.30
2019-05-13T15:12:35.819Z,43.40
2019-05-13T15:15:06.209Z,43.40
2019-05-13T15:17:36.351Z,43.40
2019-05-13T15:20:06.928Z,43.40
2019-05-13T15:22:36.806Z,43.40
2019-05-13T15:25:07.327Z,43.40
2019-05-13T15:27:37.195Z,43.40
2019-05-13T15:30:17.462Z,43.30
2019-05-13T15:32:41.871Z,43.40
2019-05-13T15:35:13.229Z,43.40
2019-05-13T15:37:42.342Z,43.40
2019-05-13T15:40:12.639Z,43.50
2019-05-13T15:42:42.579Z,43.40
2019-05-13T15:45:12.749Z,43.40
2019-05-13T15:47:42.707Z,43.40
2019-05-13T15:50:12.814Z,43.40
2019-05-13T15:52:43.465Z,43.40
2019-05-13T15:55:13.467Z,43.40
2019-05-13T15:57:43.551Z,43.40
2019-05-13T16:00:13.701Z,43.40
2019-05-13T16:02:43.656Z,43.40
2019-05-13T16:05:13.756Z,43.40
2019-05-13T16:07:43.679Z,43.30
2019-05-13T16:10:13.773Z,43.30
2019-05-13T16:12:43.665Z,43.30
2019-05-13T16:15:15.765Z,43.30
2019-05-13T16:17:45.608Z,43.30
2019-05-13T16:20:15.882Z,43.30
2019-05-13T16:22:45.683Z,43.40
2019-05-13T16:25:16.088Z,43.30
2019-05-13T16:27:45.913Z,43.30
2019-05-13T16:30:16.048Z,43.30
2019-05-13T16:32:48.098Z,43.40
2019-05-13T16:35:17.580Z,43.30
2019-05-13T16:37:47.683Z,43.40
2019-05-13T16:40:17.898Z,43.40
2019-05-13T16:42:47.731Z,43.30
2019-05-13T16:45:17.786Z,43.40
2019-05-13T16:47:57.956Z,43.30
2019-05-13T16:50:22.086Z,43.30
2019-05-13T16:52:51.204Z,43.60
2019-05-13T16:55:21.314Z,43.30
2019-05-13T16:57:51.402Z,43.90
2019-05-13T17:00:21.570Z,43.30
2019-05-13T17:02:51.853Z,43.20
2019-05-13T17:05:21.942Z,43.20
2019-05-13T17:07:51.730Z,43.20
2019-05-13T17:10:22.495Z,43.50
2019-05-13T17:12:52.505Z,43.10
2019-05-13T17:15:22.447Z,43.10
2019-05-13T17:17:52.253Z,43.20
2019-05-13T17:20:22.187Z,43.10
2019-05-13T17:22:52.109Z,43.10
2019-05-13T17:25:22.014Z,43.10
2019-05-13T17:27:51.936Z,43.10
2019-05-13T17:30:22.099Z,43.10
2019-05-13T17:32:52.070Z,43.70
2019-05-13T17:35:22.076Z,43.10
2019-05-13T17:37:52.028Z,43.10
2019-05-13T17:40:22.545Z,43.10
2019-05-13T17:42:52.598Z,43.10
2019-05-13T17:45:23.010Z,43.10
2019-05-13T17:47:52.881Z,43.20
2019-05-13T17:50:24.217Z,43.10
2019-05-13T17:52:54.044Z,43.00
2019-05-13T17:55:23.971Z,43.00
2019-05-13T17:57:53.807Z,43.00
2019-05-13T18:00:23.743Z,43.00
2019-05-13T18:02:53.615Z,43.00
2019-05-13T18:05:23.478Z,43.00
2019-05-13T18:07:53.590Z,43.00
2019-05-13T18:10:23.506Z,43.00
2019-05-13T18:12:53.423Z,43.00
2019-05-13T18:15:23.351Z,43.00
2019-05-13T18:17:53.224Z,43.00
2019-05-13T18:20:23.039Z,43.10
2019-05-13T18:22:52.958Z,43.10
2019-05-13T18:25:23.688Z,43.20
2019-05-13T18:27:53.495Z,42.70
2019-05-13T18:30:23.503Z,43.10
2019-05-13T18:32:53.418Z,43.10
2019-05-13T18:35:23.222Z,43.10
2019-05-13T18:37:53.044Z,43.10
2019-05-13T18:40:22.902Z,43.20
2019-05-13T18:42:52.815Z,43.20
2019-05-13T18:45:22.755Z,43.10
2019-05-13T18:47:52.602Z,43.10
2019-05-13T18:50:22.447Z,43.10
2019-05-13T18:52:52.537Z,43.20
2019-05-13T18:55:22.581Z,43.10
2019-05-13T18:57:52.445Z,43.10
2019-05-13T19:00:22.423Z,43.10
2019-05-13T19:02:52.265Z,43.10
2019-05-13T19:05:22.250Z,43.10
2019-05-13T19:07:52.074Z,43.20
2019-05-13T19:10:22.096Z,43.10
2019-05-13T19:12:52.027Z,43.20
2019-05-13T19:15:21.999Z,43.20
2019-05-13T19:17:52.149Z,43.20
2019-05-13T19:20:22.145Z,43.20
2019-05-13T19:22:51.991Z,43.20
2019-05-13T19:25:21.758Z,43.20
2019-05-13T19:27:51.795Z,43.10
2019-05-13T19:30:21.800Z,43.20
2019-05-13T19:32:52.123Z,43.20
2019-05-13T19:35:22.095Z,43.10
2019-05-13T19:37:52.031Z,43.10
2019-05-13T19:40:22.157Z,43.10
2019-05-13T19:42:52.205Z,43.10
2019-05-13T19:45:22.372Z,43.10
2019-05-13T19:47:52.271Z,43.10
2019-05-13T19:50:22.487Z,43.10
2019-05-13T19:52:52.388Z,43.10
2019-05-13T19:55:22.246Z,43.10
2019-05-13T19:57:52.264Z,43.10
2019-05-13T20:00:22.412Z,43.00
2019-05-13T20:02:52.379Z,43.00
2019-05-13T20:05:23.187Z,43.00
2019-05-13T20:07:53.851Z,43.00
2019-05-13T20:10:24.123Z,43.00
2019-05-13T20:12:53.895Z,43.10
2019-05-13T20:15:23.859Z,43.10
2019-05-13T20:17:53.793Z,43.10
2019-05-13T20:20:23.677Z,43.10
2019-05-13T20:22:53.555Z,43.00
2019-05-13T20:25:23.570Z,43.00
2019-05-13T20:27:53.483Z,43.00
2019-05-13T20:30:23.291Z,43.00
2019-05-13T20:32:53.108Z,43.00
2019-05-13T20:35:23.014Z,43.00
2019-05-13T20:37:52.841Z,43.00
2019-05-13T20:40:22.695Z,43.00
2019-05-13T20:42:52.570Z,43.00
2019-05-13T20:45:22.643Z,43.10
2019-05-13T20:47:52.586Z,43.00
2019-05-13T20:50:22.500Z,43.00
2019-05-13T20:52:52.356Z,43.00
2019-05-13T20:55:22.227Z,43.00
2019-05-13T20:57:53.008Z,43.10
2019-05-13T21:00:23.313Z,43.00
2019-05-13T21:02:53.136Z,43.10
2019-05-13T21:05:23.033Z,43.00
2019-05-13T21:07:52.975Z,43.00
2019-05-13T21:10:22.779Z,43.00
2019-05-13T21:12:52.645Z,43.00
2019-05-13T21:15:22.648Z,43.00
2019-05-13T21:17:52.469Z,43.00
2019-05-13T21:20:25.723Z,43.00
2019-05-13T21:22:53.809Z,43.00
2019-05-13T21:25:23.640Z,43.00
2019-05-13T21:27:53.533Z,43.00
2019-05-13T21:30:23.373Z,42.90
2019-05-13T21:32:53.204Z,42.90
2019-05-13T21:35:23.138Z,42.90
2019-05-13T21:37:52.867Z,43.00
2019-05-13T21:40:22.743Z,42.90
2019-05-13T21:42:52.813Z,42.90
2019-05-13T21:45:22.801Z,42.90
2019-05-13T21:47:52.665Z,43.00
2019-05-13T21:50:33.105Z,43.00
2019-05-13T21:52:53.890Z,42.90
2019-05-13T21:55:23.808Z,42.90
2019-05-13T21:57:53.658Z,42.90
2019-05-13T22:00:28.692Z,42.90
2019-05-13T22:02:58.565Z,42.90
2019-05-13T22:05:28.394Z,42.90
2019-05-13T22:07:58.225Z,42.90
2019-05-13T22:10:27.991Z,42.90
2019-05-13T22:12:57.831Z,42.90
2019-05-13T22:15:27.719Z,42.90
2019-05-13T22:17:57.567Z,42.90
2019-05-13T22:20:27.427Z,42.90
2019-05-13T22:22:57.271Z,42.90
2019-05-13T22:25:27.123Z,42.90
2019-05-13T22:27:56.917Z,43.60
2019-05-13T22:30:26.736Z,42.90
2019-05-13T22:32:56.527Z,42.90
2019-05-13T22:35:26.350Z,42.90
2019-05-13T22:37:56.122Z,42.90
2019-05-13T22:40:26.040Z,42.90
2019-05-13T22:42:56.673Z,42.90
2019-05-13T22:45:26.975Z,42.90
2019-05-13T22:47:56.919Z,43.00
2019-05-13T22:50:26.702Z,43.00
2019-05-13T22:52:56.466Z,42.90
2019-05-13T22:55:26.306Z,42.90
2019-05-13T22:57:56.126Z,43.00
2019-05-13T23:00:26.086Z,43.00
2019-05-13T23:02:55.879Z,43.00
2019-05-13T23:05:25.727Z,42.90
2019-05-13T23:07:55.541Z,42.90
2019-05-13T23:10:25.350Z,42.90
2019-05-13T23:12:55.159Z,42.90
2019-05-13T23:15:24.964Z,42.90
2019-05-13T23:17:56.387Z,42.90
2019-05-13T23:20:26.183Z,42.90
2019-05-13T23:22:56.070Z,42.90
2019-05-13T23:25:25.896Z,42.90
2019-05-13T23:27:55.756Z,43.60
2019-05-13T23:30:25.551Z,43.00
2019-05-13T23:32:55.366Z,42.90
2019-05-13T23:35:25.177Z,42.90
2019-05-13T23:37:54.935Z,42.90
2019-05-13T23:40:24.795Z,42.90
2019-05-13T23:42:54.626Z,43.00
2019-05-13T23:45:24.444Z,42.90
2019-05-13T23:47:54.237Z,42.90
2019-05-13T23:50:24.092Z,42.90
2019-05-13T23:52:54.006Z,42.90
2019-05-13T23:55:23.822Z,43.00
2019-05-13T23:57:53.679Z,43.00
